createdAt,value
2019-01-21T00:00:33.693Z,48.95
2019-01-21T00:03:02.670Z,49.90
2019-01-21T00:05:32.211Z,50.48
2019-01-21T00:08:01.421Z,49.15
2019-01-21T00:10:30.818Z,49.70
2019-01-21T00:12:59.772Z,49.70
2019-01-21T00:15:28.798Z,50.37
2019-01-21T00:17:57.732Z,51.73
2019-01-21T00:20:26.668Z,49.88
2019-01-21T00:22:55.532Z,49.25
2019-01-21T00:25:24.576Z,50.15
2019-01-21T00:27:53.513Z,49.70
2019-01-21T00:30:23.373Z,51.10
2019-01-21T00:32:52.257Z,50.83
2019-01-21T00:35:21.393Z,47.03
2019-01-21T00:37:50.357Z,48.80
2019-01-21T00:40:19.309Z,48.68
2019-01-21T00:42:48.445Z,50.40
2019-01-21T00:45:17.322Z,47.75
2019-01-21T00:47:46.482Z,50.78
2019-01-21T00:50:16.708Z,46.63
2019-01-21T00:52:45.674Z,49.13
2019-01-21T00:55:15.293Z,47.85
2019-01-21T00:57:44.377Z,47.93
2019-01-21T01:00:16.843Z,48.73
2019-01-21T01:02:45.696Z,48.30
2019-01-21T01:05:14.949Z,46.13
2019-01-21T01:07:44.083Z,49.50
2019-01-21T01:10:13.467Z,46.75
2019-01-21T01:12:42.385Z,46.23
2019-01-21T01:15:11.668Z,46.60
2019-01-21T01:17:40.592Z,47.78
2019-01-21T01:20:12.565Z,47.40
2019-01-21T01:22:41.756Z,49.67
2019-01-21T01:25:10.740Z,47.17
2019-01-21T01:27:39.588Z,50.33
2019-01-21T01:30:09.958Z,46.40
2019-01-21T01:32:38.920Z,48.23
2019-01-21T01:35:08.974Z,47.67
2019-01-21T01:37:38.148Z,47.62
2019-01-21T01:40:10.225Z,50.47
2019-01-21T01:42:39.521Z,49.98
2019-01-21T01:45:39.387Z,50.30
2019-01-21T01:48:08.251Z,47.03
2019-01-21T01:50:37.167Z,48.55
2019-01-21T01:53:06.070Z,49.53
2019-01-21T01:55:34.977Z,48.87
2019-01-21T01:58:05.957Z,48.85
2019-01-21T02:00:36.105Z,48.65
2019-01-21T02:03:05.239Z,47.53
2019-01-21T02:05:34.394Z,50.15
2019-01-21T02:08:03.321Z,49.38
2019-01-21T02:10:32.483Z,49.88
2019-01-21T02:13:01.628Z,49.98
2019-01-21T02:15:30.553Z,51.60
2019-01-21T02:17:59.422Z,52.93
2019-01-21T02:20:28.509Z,51.35
2019-01-21T02:23:02.673Z,53.83
2019-01-21T02:25:53.359Z,50.58
2019-01-21T02:28:54.774Z,49.38
2019-01-21T02:32:03.592Z,50.88
2019-01-21T02:34:48.710Z,51.67
2019-01-21T02:38:19.002Z,51.55
2019-01-21T02:41:07.066Z,51.15
2019-01-21T02:44:01.472Z,49.40
2019-01-21T02:47:01.216Z,51.70
2019-01-21T02:50:06.690Z,49.55
2019-01-21T02:53:04.006Z,49.00
2019-01-21T02:55:49.534Z,55.35
2019-01-21T02:58:53.254Z,57.65
2019-01-21T03:02:05.192Z,51.58
2019-01-21T03:05:19.396Z,50.67
2019-01-21T03:08:10.361Z,50.15
2019-01-21T03:11:06.958Z,47.43
2019-01-21T03:13:49.114Z,50.65
2019-01-21T03:17:03.134Z,50.85
2019-01-21T03:20:14.673Z,51.35
2019-01-21T03:23:13.948Z,49.93
2019-01-21T03:26:19.310Z,53.13
2019-01-21T03:29:22.462Z,52.27
2019-01-21T03:32:38.567Z,54.13
2019-01-21T03:35:38.645Z,52.10
2019-01-21T03:38:35.313Z,53.52
2019-01-21T03:41:19.404Z,55.98
2019-01-21T03:44:18.388Z,53.80
2019-01-21T03:47:22.435Z,52.10
2019-01-21T03:50:30.113Z,57.10
2019-01-21T03:53:28.879Z,56.35
2019-01-21T03:56:01.965Z,53.75
2019-01-21T03:58:48.092Z,53.15
2019-01-21T04:01:44.611Z,53.13
2019-01-21T04:04:53.341Z,53.55
2019-01-21T04:07:37.061Z,54.18
2019-01-21T04:10:43.261Z,59.18
2019-01-21T04:13:53.100Z,57.33
2019-01-21T04:16:37.392Z,59.48
2019-01-21T04:19:38.114Z,58.52
2019-01-21T04:22:32.672Z,57.78
2019-01-21T04:25:36.368Z,56.53
2019-01-21T04:28:23.781Z,56.58
2019-01-21T04:31:26.247Z,55.80
2019-01-21T04:34:37.970Z,54.07
2019-01-21T04:37:43.043Z,52.53
2019-01-21T04:40:42.873Z,56.40
2019-01-21T04:43:43.261Z,54.27
2019-01-21T04:46:51.856Z,58.60
2019-01-21T04:50:01.879Z,55.28
2019-01-21T04:53:10.672Z,53.73
2019-01-21T04:56:22.736Z,55.17
2019-01-21T04:59:30.102Z,55.35
2019-01-21T05:02:49.409Z,58.55
2019-01-21T05:06:04.290Z,54.25
2019-01-21T05:09:23.284Z,55.05
2019-01-21T05:12:35.624Z,55.10
2019-01-21T05:15:29.113Z,56.68
2019-01-21T05:18:41.191Z,55.55
2019-01-21T05:21:51.276Z,58.80
2019-01-21T05:24:53.857Z,56.95
2019-01-21T05:27:36.517Z,58.92
2019-01-21T05:30:35.412Z,59.75
2019-01-21T05:33:18.713Z,59.50
2019-01-21T05:36:04.560Z,58.80
2019-01-21T05:39:16.143Z,58.42
2019-01-21T05:42:19.211Z,63.55
2019-01-21T05:45:12.957Z,57.93
2019-01-21T05:48:17.680Z,55.98
2019-01-21T05:51:17.729Z,60.17
2019-01-21T05:54:39.160Z,58.13
2019-01-21T05:57:46.313Z,59.10
2019-01-21T06:00:29.096Z,58.48
2019-01-21T06:03:27.312Z,52.20
2019-01-21T06:06:19.176Z,52.50
2019-01-21T06:09:25.200Z,53.17
2019-01-21T06:12:00.966Z,52.83
2019-01-21T06:15:19.385Z,53.95
2019-01-21T06:18:23.285Z,55.85
2019-01-21T06:21:27.221Z,53.43
2019-01-21T06:24:22.764Z,55.15
2019-01-21T06:27:34.736Z,55.60
2019-01-21T06:30:33.793Z,55.33
2019-01-21T06:33:39.500Z,56.30
2019-01-21T06:36:22.669Z,55.48
2019-01-21T06:39:07.867Z,55.90
2019-01-21T06:42:15.645Z,53.35
2019-01-21T06:45:15.453Z,53.67
2019-01-21T06:48:34.935Z,53.87
2019-01-21T06:51:47.402Z,52.98
2019-01-21T06:54:45.755Z,55.78
2019-01-21T06:57:28.820Z,56.27
2019-01-21T07:01:03.320Z,54.05
2019-01-21T07:04:17.857Z,54.95
2019-01-21T07:07:34.560Z,54.18
2019-01-21T07:10:28.380Z,56.35
2019-01-21T07:13:38.709Z,55.37
2019-01-21T07:16:48.832Z,52.70
2019-01-21T07:20:06.173Z,54.40
2019-01-21T07:22:55.677Z,54.53
2019-01-21T07:25:57.353Z,55.90
2019-01-21T07:29:03.777Z,53.45
2019-01-21T07:31:58.185Z,52.85
2019-01-21T07:34:51.400Z,57.65
2019-01-21T07:37:59.240Z,57.45
2019-01-21T07:40:46.306Z,55.40
2019-01-21T07:43:43.115Z,56.55
2019-01-21T07:46:51.966Z,60.23
2019-01-21T07:49:57.125Z,58.95
2019-01-21T07:53:02.432Z,55.15
2019-01-21T07:56:18.713Z,56.63
2019-01-21T07:59:12.478Z,57.05
2019-01-21T08:01:57.724Z,54.48
2019-01-21T08:04:55.853Z,57.30
2019-01-21T08:07:35.523Z,53.50
2019-01-21T08:10:51.222Z,56.37
2019-01-21T08:13:45.380Z,54.93
2019-01-21T08:16:58.877Z,57.13
2019-01-21T08:20:08.677Z,53.68
2019-01-21T08:23:16.895Z,56.42
2019-01-21T08:26:14.757Z,53.58
2019-01-21T08:28:53.522Z,56.83
2019-01-21T08:32:03.465Z,56.08
2019-01-21T08:34:48.557Z,57.85
2019-01-21T08:37:40.482Z,55.40
2019-01-21T08:40:36.402Z,52.30
2019-01-21T08:43:52.517Z,54.30
2019-01-21T08:46:56.711Z,52.43
2019-01-21T08:50:15.340Z,52.13
2019-01-21T08:53:24.734Z,51.28
2019-01-21T08:56:31.722Z,50.73
2019-01-21T08:59:42.098Z,51.28
2019-01-21T09:02:33.055Z,50.00
2019-01-21T09:05:36.150Z,51.13
2019-01-21T09:08:53.060Z,47.60
2019-01-21T09:11:50.502Z,47.35
2019-01-21T09:14:57.700Z,49.17
2019-01-21T09:17:45.701Z,44.93
2019-01-21T09:20:45.297Z,47.80
2019-01-21T09:23:30.178Z,48.02
2019-01-21T09:26:39.298Z,44.65
2019-01-21T09:29:29.551Z,44.85
2019-01-21T09:32:54.786Z,45.58
2019-01-21T09:35:45.073Z,45.07
2019-01-21T09:38:43.065Z,42.80
2019-01-21T09:41:49.221Z,43.30
2019-01-21T09:44:50.569Z,44.83
2019-01-21T09:47:18.030Z,42.73
2019-01-21T09:49:47.556Z,44.08
2019-01-21T09:52:20.233Z,43.00
2019-01-21T09:54:50.077Z,43.93
2019-01-21T09:57:25.201Z,43.83
2019-01-21T09:59:56.667Z,42.08
2019-01-21T10:02:34.753Z,40.28
2019-01-21T10:05:08.612Z,41.77
2019-01-21T10:08:07.599Z,42.93
2019-01-21T10:11:18.696Z,40.95
2019-01-21T10:14:24.846Z,39.90
2019-01-21T10:17:34.853Z,39.40
2019-01-21T10:20:42.081Z,41.73
2019-01-21T10:23:39.152Z,41.68
2019-01-21T10:27:01.512Z,40.43
2019-01-21T10:30:03.739Z,40.60
2019-01-21T10:33:12.173Z,40.40
2019-01-21T10:36:06.948Z,40.12
2019-01-21T10:39:19.082Z,36.50
2019-01-21T10:42:14.518Z,34.25
2019-01-21T10:45:19.101Z,31.80
2019-01-21T10:48:09.360Z,31.90
2019-01-21T10:51:00.673Z,32.08
2019-01-21T10:54:05.619Z,32.83
2019-01-21T10:57:09.916Z,30.15
2019-01-21T11:00:01.582Z,32.42
2019-01-21T11:03:32.885Z,30.70
2019-01-21T11:06:41.572Z,29.90
2019-01-21T11:09:35.266Z,30.10
2019-01-21T11:12:56.756Z,30.55
2019-01-21T11:15:47.241Z,29.92
2019-01-21T11:18:44.735Z,29.33
2019-01-21T11:21:41.506Z,29.00
2019-01-21T11:25:04.153Z,29.82
2019-01-21T11:28:03.416Z,30.75
2019-01-21T11:31:08.137Z,32.08
2019-01-21T11:33:58.431Z,32.23
2019-01-21T11:37:00.486Z,31.67
2019-01-21T11:40:01.461Z,31.57
2019-01-21T11:43:10.089Z,34.58
2019-01-21T11:46:16.332Z,35.68
2019-01-21T11:49:04.627Z,33.85
2019-01-21T11:52:27.429Z,37.57
2019-01-21T11:55:05.342Z,35.27
2019-01-21T11:58:15.613Z,36.85
2019-01-21T12:01:32.110Z,36.95
2019-01-21T12:04:14.241Z,34.30
2019-01-21T12:06:52.856Z,33.95
2019-01-21T12:09:44.377Z,35.28
2019-01-21T12:12:40.652Z,36.90
2019-01-21T12:15:45.484Z,35.78
2019-01-21T12:18:24.048Z,34.37
2019-01-21T12:21:49.703Z,37.17
2019-01-21T12:24:28.764Z,40.25
2019-01-21T12:27:40.971Z,34.60
2019-01-21T12:30:55.017Z,37.55
2019-01-21T12:34:05.600Z,33.98
2019-01-21T12:36:59.084Z,35.48
2019-01-21T12:40:06.921Z,37.83
2019-01-21T12:43:23.149Z,36.20
2019-01-21T12:46:39.575Z,36.17
2019-01-21T12:49:49.860Z,36.88
2019-01-21T12:52:41.083Z,36.15
2019-01-21T12:55:38.964Z,37.05
2019-01-21T12:58:55.780Z,36.40
2019-01-21T13:02:00.413Z,34.15
2019-01-21T13:04:51.422Z,33.30
2019-01-21T13:07:46.134Z,33.55
2019-01-21T13:11:08.171Z,33.65
2019-01-21T13:14:04.021Z,36.58
2019-01-21T13:16:47.350Z,35.10
2019-01-21T13:20:09.704Z,35.48
2019-01-21T13:23:13.736Z,36.15
2019-01-21T13:26:32.181Z,35.70
2019-01-21T13:29:31.062Z,34.55
2019-01-21T13:32:41.712Z,35.33
2019-01-21T13:35:45.835Z,33.33
2019-01-21T13:38:58.073Z,33.08
2019-01-21T13:42:03.405Z,34.23
2019-01-21T13:44:56.273Z,35.43
2019-01-21T13:47:45.096Z,35.75
2019-01-21T13:50:28.486Z,34.58
2019-01-21T13:53:38.301Z,34.83
2019-01-21T13:56:47.084Z,34.20
2019-01-21T14:00:05.929Z,33.75
2019-01-21T14:02:43.043Z,32.20
2019-01-21T14:06:02.138Z,33.63
2019-01-21T14:09:15.479Z,32.88
2019-01-21T14:12:13.655Z,34.05
2019-01-21T14:15:29.545Z,33.90
2019-01-21T14:18:34.557Z,35.10
2019-01-21T14:21:09.250Z,33.92
2019-01-21T14:24:27.550Z,34.65
2019-01-21T14:27:29.628Z,35.80
2019-01-21T14:30:07.281Z,36.42
2019-01-21T14:33:03.314Z,36.95
2019-01-21T14:36:06.274Z,35.28
2019-01-21T14:38:45.563Z,32.48
2019-01-21T14:41:51.977Z,36.05
2019-01-21T14:45:16.683Z,36.67
2019-01-21T14:48:13.048Z,37.03
2019-01-21T14:51:11.139Z,33.30
2019-01-21T14:54:16.023Z,33.98
2019-01-21T14:57:29.865Z,34.03
2019-01-21T15:00:45.284Z,34.38
2019-01-21T15:03:57.883Z,33.48
2019-01-21T15:06:58.795Z,34.88
2019-01-21T15:10:11.899Z,35.73
2019-01-21T15:13:15.973Z,35.25
2019-01-21T15:16:16.531Z,32.60
2019-01-21T15:19:09.524Z,33.88
2019-01-21T15:22:04.045Z,35.13
2019-01-21T15:24:56.794Z,34.48
2019-01-21T15:27:43.059Z,33.28
2019-01-21T15:30:53.715Z,34.25
2019-01-21T15:33:35.677Z,33.83
2019-01-21T15:36:31.864Z,32.40
2019-01-21T15:39:23.258Z,33.85
2019-01-21T15:42:51.885Z,33.33
2019-01-21T15:45:50.796Z,33.20
2019-01-21T15:48:30.245Z,36.80
2019-01-21T15:51:21.019Z,34.85
2019-01-21T15:54:26.262Z,33.48
2019-01-21T15:57:39.158Z,33.63
2019-01-21T16:00:43.069Z,36.20
2019-01-21T16:03:39.705Z,33.42
2019-01-21T16:06:34.078Z,33.38
2019-01-21T16:09:52.250Z,33.42
2019-01-21T16:12:59.236Z,35.52
2019-01-21T16:15:53.022Z,36.77
2019-01-21T16:18:34.650Z,35.38
2019-01-21T16:21:48.526Z,35.13
2019-01-21T16:24:42.922Z,34.50
2019-01-21T16:27:22.412Z,35.57
2019-01-21T16:30:33.087Z,35.10
2019-01-21T16:33:13.873Z,37.58
2019-01-21T16:36:15.080Z,37.60
2019-01-21T16:38:57.297Z,38.80
2019-01-21T16:42:16.056Z,38.42
2019-01-21T16:45:04.852Z,42.97
2019-01-21T16:47:34.061Z,41.83
2019-01-21T16:50:02.955Z,41.42
2019-01-21T16:52:31.755Z,41.25
2019-01-21T16:55:00.894Z,38.15
2019-01-21T16:57:31.285Z,40.07
2019-01-21T17:00:03.441Z,42.98
2019-01-21T17:02:34.659Z,44.83
2019-01-21T17:05:04.303Z,46.40
2019-01-21T17:07:38.006Z,45.55
2019-01-21T17:10:08.864Z,43.15
2019-01-21T17:12:38.106Z,43.00
2019-01-21T17:15:08.156Z,43.93
2019-01-21T17:17:37.158Z,42.85
2019-01-21T17:20:10.934Z,43.23
2019-01-21T17:22:39.738Z,43.80
2019-01-21T17:25:08.938Z,46.33
2019-01-21T17:27:37.828Z,43.50
2019-01-21T17:30:08.507Z,42.48
2019-01-21T17:32:37.427Z,46.45
2019-01-21T17:35:08.008Z,48.68
2019-01-21T17:37:37.256Z,48.52
2019-01-21T17:40:08.321Z,49.77
2019-01-21T17:42:37.145Z,50.88
2019-01-21T17:45:09.725Z,61.37
2019-01-21T17:47:38.863Z,52.70
2019-01-21T17:50:10.130Z,52.58
2019-01-21T17:52:39.024Z,52.03
2019-01-21T17:55:08.254Z,50.92
2019-01-21T17:57:37.420Z,51.25
2019-01-21T18:00:08.917Z,50.90
2019-01-21T18:02:38.034Z,50.38
2019-01-21T18:05:07.374Z,49.40
2019-01-21T18:07:36.268Z,52.00
2019-01-21T18:10:08.289Z,50.88
2019-01-21T18:12:37.260Z,50.45
2019-01-21T18:15:07.979Z,52.48
2019-01-21T18:17:37.141Z,48.68
2019-01-21T18:20:09.912Z,49.55
2019-01-21T18:22:38.691Z,47.83
2019-01-21T18:25:08.809Z,49.83
2019-01-21T18:27:37.604Z,48.75
2019-01-21T18:30:09.298Z,46.98
2019-01-21T18:32:38.073Z,47.20
2019-01-21T18:35:08.415Z,48.02
2019-01-21T18:37:37.348Z,46.75
2019-01-21T18:40:08.227Z,48.55
2019-01-21T18:42:37.153Z,48.92
2019-01-21T18:45:07.231Z,50.75
2019-01-21T18:47:36.425Z,47.00
2019-01-21T18:50:06.669Z,49.07
2019-01-21T18:52:40.473Z,46.63
2019-01-21T18:55:10.820Z,49.53
2019-01-21T18:57:39.654Z,46.30
2019-01-21T19:00:13.030Z,51.00
2019-01-21T19:02:43.350Z,50.10
2019-01-21T19:05:12.574Z,50.08
2019-01-21T19:07:41.500Z,53.15
2019-01-21T19:10:11.622Z,54.33
2019-01-21T19:12:40.524Z,54.40
2019-01-21T19:15:15.922Z,49.83
2019-01-21T19:17:44.854Z,51.00
2019-01-21T19:20:15.221Z,54.85
2019-01-21T19:22:45.240Z,52.93
2019-01-21T19:25:14.189Z,48.83
2019-01-21T19:27:43.054Z,49.50
2019-01-21T19:30:31.189Z,47.33
2019-01-21T19:33:00.021Z,47.88
2019-01-21T19:35:31.428Z,46.87
2019-01-21T19:38:00.575Z,50.45
2019-01-21T19:40:29.771Z,55.85
2019-01-21T19:42:59.568Z,65.05
2019-01-21T19:45:28.793Z,60.10
2019-01-21T19:47:57.682Z,62.00
2019-01-21T19:50:26.725Z,50.50
2019-01-21T19:52:55.998Z,47.07
2019-01-21T19:55:28.293Z,53.33
2019-01-21T19:57:57.277Z,62.43
2019-01-21T20:00:26.365Z,52.88
2019-01-21T20:02:55.213Z,49.50
2019-01-21T20:05:24.232Z,46.77
2019-01-21T20:07:53.188Z,46.55
2019-01-21T20:10:22.240Z,44.15
2019-01-21T20:12:51.072Z,50.30
2019-01-21T20:15:20.405Z,49.77
2019-01-21T20:17:49.468Z,53.10
2019-01-21T20:20:23.694Z,63.15
2019-01-21T20:22:57.467Z,78.92
2019-01-21T20:25:23.685Z,78.57
2019-01-21T20:27:52.763Z,72.22
2019-01-21T20:30:22.070Z,70.62
2019-01-21T20:32:51.024Z,63.00
2019-01-21T20:35:20.131Z,59.00
2019-01-21T20:37:49.088Z,55.48
2019-01-21T20:40:23.245Z,54.83
2019-01-21T20:42:52.227Z,53.45
2019-01-21T20:45:21.682Z,53.68
2019-01-21T20:47:50.731Z,48.98
2019-01-21T20:50:22.185Z,50.73
2019-01-21T20:52:50.960Z,54.83
2019-01-21T20:55:20.719Z,56.00
2019-01-21T20:57:49.656Z,53.13
2019-01-21T21:00:23.648Z,48.95
2019-01-21T21:02:52.980Z,51.48
2019-01-21T21:05:21.982Z,51.37
2019-01-21T21:07:50.833Z,49.63
2019-01-21T21:10:19.793Z,46.23
2019-01-21T21:12:48.621Z,49.75
2019-01-21T21:15:20.149Z,47.38
2019-01-21T21:17:48.913Z,48.10
2019-01-21T21:20:17.852Z,47.23
2019-01-21T21:22:46.688Z,49.63
2019-01-21T21:25:18.414Z,51.28
2019-01-21T21:27:47.322Z,53.77
2019-01-21T21:30:19.170Z,51.30
2019-01-21T21:32:48.025Z,53.58
2019-01-21T21:35:16.992Z,55.28
2019-01-21T21:37:46.137Z,54.27
2019-01-21T21:40:16.593Z,53.02
2019-01-21T21:42:45.805Z,50.98
2019-01-21T21:45:16.008Z,51.63
2019-01-21T21:47:44.869Z,49.93
2019-01-21T21:50:16.121Z,47.78
2019-01-21T21:52:44.929Z,49.42
2019-01-21T21:55:13.938Z,48.68
2019-01-21T21:57:42.710Z,47.70
2019-01-21T22:00:15.300Z,47.10
2019-01-21T22:02:44.373Z,46.95
2019-01-21T22:05:13.795Z,52.55
2019-01-21T22:07:42.687Z,62.45
2019-01-21T22:10:13.683Z,69.45
2019-01-21T22:12:42.613Z,65.17
2019-01-21T22:15:13.771Z,59.90
2019-01-21T22:17:42.944Z,60.63
2019-01-21T22:20:16.676Z,62.53
2019-01-21T22:22:45.463Z,66.77
2019-01-21T22:25:14.637Z,65.03
2019-01-21T22:27:43.490Z,59.35
2019-01-21T22:30:17.662Z,60.65
2019-01-21T22:32:46.569Z,63.20
2019-01-21T22:35:15.513Z,64.90
2019-01-21T22:37:45.332Z,66.70
2019-01-21T22:40:16.582Z,62.23
2019-01-21T22:42:45.668Z,61.27
2019-01-21T22:45:15.816Z,57.98
2019-01-21T22:47:44.989Z,54.90
2019-01-21T22:50:15.220Z,56.58
2019-01-21T22:52:44.106Z,52.40
2019-01-21T22:55:14.241Z,58.38
2019-01-21T22:57:43.232Z,59.58
2019-01-21T23:00:58.311Z,57.13
2019-01-21T23:03:28.514Z,56.92
2019-01-21T23:05:57.586Z,55.50
2019-01-21T23:08:26.423Z,52.90
2019-01-21T23:10:55.378Z,49.00
2019-01-21T23:13:24.246Z,50.75
2019-01-21T23:15:53.046Z,48.87
2019-01-21T23:18:21.865Z,49.45
2019-01-21T23:20:51.012Z,49.25
2019-01-21T23:23:20.022Z,50.48
2019-01-21T23:25:48.929Z,46.42
2019-01-21T23:28:17.766Z,49.60
2019-01-21T23:30:46.533Z,46.03
2019-01-21T23:33:15.316Z,50.33
2019-01-21T23:35:44.064Z,51.77
2019-01-21T23:38:12.824Z,51.98
2019-01-21T23:40:41.663Z,49.33
2019-01-21T23:43:10.758Z,47.98
2019-01-21T23:45:39.505Z,51.80
2019-01-21T23:48:08.664Z,50.88
2019-01-21T23:50:37.985Z,49.10
2019-01-21T23:53:06.826Z,49.60
2019-01-21T23:55:35.656Z,48.05
2019-01-21T23:58:04.577Z,45.33
